createdAt,value
2023-12-02T00:02:12.689Z,-1.42
2023-12-02T00:04:39.141Z,-1.41
2023-12-02T00:07:05.749Z,-1.51
2023-12-02T00:09:32.168Z,-1.59
2023-12-02T00:11:59.032Z,-1.70
2023-12-02T00:14:25.395Z,-1.80
2023-12-02T00:16:51.796Z,-1.83
2023-12-02T00:19:18.290Z,-1.90
2023-12-02T00:21:44.750Z,-2.04
2023-12-02T00:24:11.193Z,-2.11
2023-12-02T00:26:37.648Z,-2.18
2023-12-02T00:29:04.046Z,-2.25
2023-12-02T00:31:30.388Z,-2.33
2023-12-02T00:33:58.329Z,-2.45
2023-12-02T00:36:25.145Z,-2.54
2023-12-02T00:38:52.184Z,-2.57
2023-12-02T00:41:18.619Z,-2.60
2023-12-02T00:43:45.001Z,-2.62
2023-12-02T00:46:11.320Z,-2.55
2023-12-02T00:48:37.855Z,-2.49
2023-12-02T00:51:04.619Z,-2.52
2023-12-02T00:53:31.047Z,-2.54
2023-12-02T00:55:58.186Z,-2.65
2023-12-02T00:58:31.826Z,-2.72
2023-12-02T01:01:05.305Z,-2.73
2023-12-02T01:03:31.728Z,-2.77
2023-12-02T01:05:58.304Z,-2.85
2023-12-02T01:08:24.768Z,-2.85
2023-12-02T01:10:51.229Z,-2.76
2023-12-02T01:13:17.648Z,-2.61
2023-12-02T01:15:44.071Z,-2.60
2023-12-02T01:18:10.542Z,-2.55
2023-12-02T01:20:36.983Z,-2.43
2023-12-02T01:23:03.442Z,-2.37
2023-12-02T01:25:30.035Z,-2.29
2023-12-02T01:27:56.410Z,-2.24
2023-12-02T01:30:22.802Z,-2.23
2023-12-02T01:32:49.827Z,-2.22
2023-12-02T01:35:16.483Z,-2.23
2023-12-02T01:37:42.865Z,-2.23
2023-12-02T01:40:12.307Z,-2.25
2023-12-02T01:42:39.353Z,-2.28
2023-12-02T01:45:06.447Z,-2.38
2023-12-02T01:47:32.996Z,-2.53
2023-12-02T01:50:01.611Z,-2.54
2023-12-02T01:52:28.499Z,-2.58
2023-12-02T01:54:55.771Z,-2.64
2023-12-02T01:57:22.475Z,-2.75
2023-12-02T01:59:54.280Z,-2.74
2023-12-02T02:02:21.228Z,-2.80
2023-12-02T02:04:49.426Z,-2.89
2023-12-02T02:07:15.797Z,-2.97
2023-12-02T02:09:49.916Z,-2.89
2023-12-02T02:12:17.552Z,-2.93
2023-12-02T02:14:44.100Z,-2.97
2023-12-02T02:17:10.465Z,-3.04
2023-12-02T02:19:37.013Z,-3.07
2023-12-02T02:22:04.827Z,-3.10
2023-12-02T02:24:31.424Z,-3.16
2023-12-02T02:26:57.847Z,-3.19
2023-12-02T02:29:24.272Z,-3.05
2023-12-02T02:31:50.668Z,-3.09
2023-12-02T02:34:17.179Z,-3.11
2023-12-02T02:36:43.828Z,-3.22
2023-12-02T02:39:11.987Z,-3.27
2023-12-02T02:41:38.502Z,-3.33
2023-12-02T02:44:04.989Z,-3.33
2023-12-02T02:46:31.351Z,-3.49
2023-12-02T02:48:58.236Z,-3.66
2023-12-02T02:51:24.729Z,-3.71
2023-12-02T02:53:51.090Z,-3.76
2023-12-02T02:56:17.468Z,-3.72
2023-12-02T02:58:43.882Z,-3.59
2023-12-02T03:01:10.307Z,-3.50
2023-12-02T03:03:36.650Z,-3.58
2023-12-02T03:06:03.165Z,-3.67
2023-12-02T03:08:29.532Z,-3.78
2023-12-02T03:10:55.907Z,-3.78
2023-12-02T03:13:22.338Z,-3.69
2023-12-02T03:15:48.980Z,-3.62
2023-12-02T03:18:15.583Z,-3.54
2023-12-02T03:20:42.025Z,-3.43
2023-12-02T03:23:08.458Z,-3.34
2023-12-02T03:25:34.852Z,-3.28
2023-12-02T03:28:01.244Z,-3.25
2023-12-02T03:30:27.623Z,-3.31
2023-12-02T03:32:54.682Z,-3.53
2023-12-02T03:35:21.199Z,-3.43
2023-12-02T03:37:47.635Z,-3.37
2023-12-02T03:40:14.301Z,-3.28
2023-12-02T03:42:40.721Z,-3.27
2023-12-02T03:45:07.829Z,-3.03
2023-12-02T03:47:34.720Z,-3.02
2023-12-02T03:50:01.163Z,-2.89
2023-12-02T03:52:27.623Z,-2.69
2023-12-02T03:54:54.042Z,-2.64
2023-12-02T03:57:20.800Z,-2.50
2023-12-02T03:59:47.211Z,-2.49
2023-12-02T04:02:13.682Z,-2.39
2023-12-02T04:04:40.092Z,-2.36
2023-12-02T04:07:06.563Z,-2.32
2023-12-02T04:09:33.545Z,-2.28
2023-12-02T04:12:00.028Z,-2.26
2023-12-02T04:14:26.493Z,-2.15
2023-12-02T04:16:53.079Z,-2.14
2023-12-02T04:19:19.557Z,-2.08
2023-12-02T04:21:46.914Z,-2.05
2023-12-02T04:24:13.416Z,-2.04
2023-12-02T04:26:42.329Z,-2.04
2023-12-02T04:29:08.680Z,-1.99
2023-12-02T04:31:35.043Z,-2.01
2023-12-02T04:34:01.695Z,-1.97
2023-12-02T04:36:28.227Z,-1.95
2023-12-02T04:38:54.796Z,-1.96
2023-12-02T04:41:21.165Z,-1.97
2023-12-02T04:43:47.552Z,-1.95
2023-12-02T04:46:14.056Z,-1.95
2023-12-02T04:48:40.679Z,-1.90
2023-12-02T04:51:07.399Z,-1.92
2023-12-02T04:53:34.328Z,-1.91
2023-12-02T04:56:00.817Z,-1.87
2023-12-02T04:58:27.164Z,-1.85
2023-12-02T05:00:54.329Z,-1.83
2023-12-02T05:03:20.812Z,-1.92
2023-12-02T05:05:47.360Z,-1.95
2023-12-02T05:08:14.226Z,-1.98
2023-12-02T05:10:40.600Z,-1.97
2023-12-02T05:13:09.076Z,-1.93
2023-12-02T05:15:35.562Z,-1.91
2023-12-02T05:18:02.022Z,-1.93
2023-12-02T05:20:28.478Z,-1.94
2023-12-02T05:22:54.869Z,-1.91
2023-12-02T05:25:21.542Z,-1.91
2023-12-02T05:27:47.852Z,-1.88
2023-12-02T05:30:14.623Z,-1.92
2023-12-02T05:32:41.116Z,-1.91
2023-12-02T05:35:09.836Z,-1.92
2023-12-02T05:37:36.232Z,-1.88
2023-12-02T05:40:04.235Z,-1.89
2023-12-02T05:44:56.182Z,-1.96
2023-12-02T05:47:22.640Z,-1.93
2023-12-02T05:49:49.026Z,-1.97
2023-12-02T05:52:15.449Z,-1.98
2023-12-02T05:54:41.809Z,-1.95
2023-12-02T05:57:08.237Z,-2.03
2023-12-02T05:59:35.107Z,-1.93
2023-12-02T06:02:01.563Z,-1.96
2023-12-02T06:04:28.015Z,-1.95
2023-12-02T06:06:54.466Z,-1.91
2023-12-02T06:09:20.826Z,-1.92
2023-12-02T06:11:47.185Z,-1.88
2023-12-02T06:14:13.549Z,-1.87
2023-12-02T06:16:39.901Z,-1.91
2023-12-02T06:19:06.504Z,-1.89
2023-12-02T06:21:33.186Z,-1.94
2023-12-02T06:23:59.747Z,-1.92
2023-12-02T06:26:26.132Z,-1.95
2023-12-02T06:28:52.521Z,-1.96
2023-12-02T06:31:18.885Z,-1.95
2023-12-02T06:33:45.494Z,-1.96
2023-12-02T06:36:12.460Z,-1.99
2023-12-02T06:38:38.868Z,-1.95
2023-12-02T06:41:05.941Z,-1.95
2023-12-02T06:43:32.304Z,-1.94
2023-12-02T06:45:58.768Z,-1.99
2023-12-02T06:48:25.208Z,-1.97
2023-12-02T06:50:51.906Z,-1.95
2023-12-02T06:53:18.335Z,-1.90
2023-12-02T06:55:44.772Z,-1.91
2023-12-02T06:58:11.111Z,-1.94
2023-12-02T07:00:37.512Z,-1.94
2023-12-02T07:03:04.114Z,-1.93
2023-12-02T07:05:30.520Z,-1.94
2023-12-02T07:07:57.627Z,-1.91
2023-12-02T07:10:24.020Z,-1.92
2023-12-02T07:12:50.483Z,-1.95
2023-12-02T07:15:16.935Z,-1.96
2023-12-02T07:17:43.292Z,-2.01
2023-12-02T07:20:09.940Z,-2.06
2023-12-02T07:22:37.423Z,-2.03
2023-12-02T07:25:04.170Z,-2.04
2023-12-02T07:27:30.577Z,-2.05
2023-12-02T07:32:26.335Z,-2.07
2023-12-02T07:34:52.747Z,-2.05
2023-12-02T07:37:19.113Z,-2.05
2023-12-02T07:39:45.753Z,-2.10
2023-12-02T07:42:12.128Z,-2.11
2023-12-02T07:44:38.498Z,-2.12
2023-12-02T07:47:05.345Z,-2.14
2023-12-02T07:49:31.812Z,-2.12
2023-12-02T07:51:58.151Z,-2.07
2023-12-02T07:54:24.499Z,-2.10
2023-12-02T07:56:51.007Z,-2.12
2023-12-02T07:59:17.383Z,-2.09
2023-12-02T08:01:43.864Z,-2.09
2023-12-02T08:04:10.286Z,-2.10
2023-12-02T08:06:37.720Z,-2.07
2023-12-02T08:09:04.113Z,-2.08
2023-12-02T08:11:30.585Z,-2.06
2023-12-02T08:13:56.970Z,-2.12
2023-12-02T08:16:23.347Z,-2.12
2023-12-02T08:18:49.853Z,-2.15
2023-12-02T08:21:16.213Z,-2.13
2023-12-02T08:23:42.644Z,-2.13
2023-12-02T08:26:09.135Z,-2.12
2023-12-02T08:28:35.517Z,-2.08
2023-12-02T08:31:01.865Z,-2.09
2023-12-02T08:33:28.214Z,-2.02
2023-12-02T08:35:54.817Z,-2.03
2023-12-02T08:38:21.263Z,-1.99
2023-12-02T08:40:50.132Z,-1.98
2023-12-02T08:43:16.728Z,-1.97
2023-12-02T08:45:43.188Z,-1.92
2023-12-02T08:48:09.684Z,-1.94
2023-12-02T08:50:36.089Z,-1.94
2023-12-02T08:53:02.503Z,-1.89
2023-12-02T08:55:29.109Z,-1.80
2023-12-02T08:57:55.558Z,-1.80
2023-12-02T09:00:22.104Z,-1.79
2023-12-02T09:02:48.686Z,-1.79
2023-12-02T09:05:15.257Z,-1.74
2023-12-02T09:07:41.813Z,-1.63
2023-12-02T09:10:09.842Z,-1.63
2023-12-02T09:12:36.233Z,-1.62
2023-12-02T09:15:10.043Z,-1.62
2023-12-02T09:18:01.406Z,-1.46
2023-12-02T09:20:39.301Z,-1.40
2023-12-02T09:23:07.643Z,-1.28
2023-12-02T09:25:39.639Z,-1.27
2023-12-02T09:28:10.346Z,-1.37
2023-12-02T09:30:50.021Z,-1.35
2023-12-02T09:33:33.787Z,-1.26
2023-12-02T09:36:02.823Z,-1.29
2023-12-02T09:38:29.674Z,-1.34
2023-12-02T09:41:17.828Z,-1.26
2023-12-02T09:44:11.090Z,-1.38
2023-12-02T09:46:43.285Z,-1.47
2023-12-02T09:49:47.403Z,-1.49
2023-12-02T09:52:26.011Z,-1.64
2023-12-02T09:55:15.509Z,-1.68
2023-12-02T09:58:02.504Z,-1.58
2023-12-02T10:00:51.824Z,-1.53
2023-12-02T10:03:49.557Z,-1.71
2023-12-02T10:06:46.563Z,-1.71
2023-12-02T10:09:15.944Z,-1.82
2023-12-02T10:11:59.577Z,-1.64
2023-12-02T10:14:26.864Z,-1.65
2023-12-02T10:16:55.032Z,-1.55
2023-12-02T10:19:42.239Z,-1.55
2023-12-02T10:22:11.325Z,-1.48
2023-12-02T10:24:51.336Z,-1.39
2023-12-02T10:27:18.685Z,-1.42
2023-12-02T10:30:00.434Z,-1.48
2023-12-02T10:32:26.821Z,-1.36
2023-12-02T10:34:53.177Z,-1.35
2023-12-02T10:37:23.530Z,-1.35
2023-12-02T10:39:53.816Z,-1.46
2023-12-02T10:42:41.564Z,-1.42
2023-12-02T10:45:09.791Z,-1.47
2023-12-02T10:47:37.460Z,-1.56
2023-12-02T10:50:05.279Z,-1.76
2023-12-02T10:55:06.930Z,-1.66
2023-12-02T10:57:33.948Z,-1.70
2023-12-02T11:00:08.445Z,-1.62
2023-12-02T11:02:47.465Z,-1.74
2023-12-02T11:05:21.330Z,-1.69
2023-12-02T11:07:52.499Z,-1.62
2023-12-02T11:10:29.119Z,-1.58
2023-12-02T11:13:04.152Z,-1.64
2023-12-02T11:15:43.247Z,-1.58
2023-12-02T11:18:14.867Z,-1.81
2023-12-02T11:20:52.877Z,-1.74
2023-12-02T11:23:41.608Z,-1.64
2023-12-02T11:26:53.738Z,-1.47
2023-12-02T11:29:56.930Z,-1.50
2023-12-02T11:32:35.419Z,-1.56
2023-12-02T11:35:11.952Z,-1.45
2023-12-02T11:38:10.434Z,-1.49
2023-12-02T11:40:58.287Z,-1.58
2023-12-02T11:43:43.046Z,-1.42
2023-12-02T11:46:15.902Z,-1.42
2023-12-02T11:48:58.349Z,-1.59
2023-12-02T11:51:44.254Z,-1.51
2023-12-02T11:54:23.617Z,-1.41
2023-12-02T11:57:18.288Z,-1.35
2023-12-02T12:00:04.847Z,-1.28
2023-12-02T12:02:49.791Z,-1.40
2023-12-02T12:05:23.150Z,-1.37
2023-12-02T12:08:10.386Z,-1.37
2023-12-02T12:10:39.075Z,-1.35
2023-12-02T12:13:09.795Z,-1.29
2023-12-02T12:15:37.620Z,-1.24
2023-12-02T12:18:05.627Z,-1.24
2023-12-02T12:20:32.357Z,-1.17
2023-12-02T12:22:59.141Z,-1.15
2023-12-02T12:25:30.423Z,-1.22
2023-12-02T12:28:04.542Z,-1.23
2023-12-02T12:30:48.255Z,-1.21
2023-12-02T12:33:16.480Z,-1.23
2023-12-02T12:35:43.527Z,-1.26
2023-12-02T12:38:10.810Z,-1.29
2023-12-02T12:40:38.078Z,-1.39
2023-12-02T12:43:04.513Z,-1.57
2023-12-02T12:45:34.317Z,-1.54
2023-12-02T12:48:02.025Z,-1.45
2023-12-02T12:50:34.223Z,-1.47
2023-12-02T12:53:06.319Z,-1.42
2023-12-02T12:55:37.629Z,-1.35
2023-12-02T12:58:08.315Z,-1.32
2023-12-02T13:00:38.261Z,-1.32
2023-12-02T13:03:45.103Z,-1.36
2023-12-02T13:06:37.949Z,-1.30
2023-12-02T13:09:09.403Z,-1.27
2023-12-02T13:12:04.151Z,-1.32
2023-12-02T13:14:37.201Z,-1.42
2023-12-02T13:17:04.404Z,-1.40
2023-12-02T13:19:32.171Z,-1.43
2023-12-02T13:22:01.717Z,-1.39
2023-12-02T13:24:33.053Z,-1.30
2023-12-02T13:26:59.465Z,-1.38
2023-12-02T13:29:26.835Z,-1.32
2023-12-02T13:31:54.254Z,-1.39
2023-12-02T13:34:49.815Z,-1.38
2023-12-02T13:37:22.772Z,-1.31
2023-12-02T13:39:59.247Z,-1.27
2023-12-02T13:42:37.150Z,-1.18
2023-12-02T13:45:08.055Z,-1.13
2023-12-02T13:48:02.966Z,-1.10
2023-12-02T13:50:36.792Z,-1.39
2023-12-02T13:53:26.365Z,-1.37
2023-12-02T13:56:25.394Z,-1.36
2023-12-02T13:59:12.059Z,-1.38
2023-12-02T14:01:45.537Z,-1.23
2023-12-02T14:04:25.612Z,-1.19
2023-12-02T14:06:56.814Z,-1.20
2023-12-02T14:09:25.392Z,-1.20
2023-12-02T14:11:51.761Z,-1.10
2023-12-02T14:14:39.607Z,-1.07
2023-12-02T14:17:33.058Z,-1.09
2023-12-02T14:20:35.471Z,-1.03
2023-12-02T14:23:20.638Z,-1.11
2023-12-02T14:25:59.278Z,-1.14
2023-12-02T14:28:49.969Z,-1.10
2023-12-02T14:31:46.766Z,-1.09
2023-12-02T14:34:32.422Z,-1.05
2023-12-02T14:37:11.040Z,-1.12
2023-12-02T14:39:52.587Z,-1.08
2023-12-02T14:42:49.878Z,-1.12
2023-12-02T14:45:18.631Z,-1.22
2023-12-02T14:47:45.693Z,-1.42
2023-12-02T14:50:12.603Z,-1.54
2023-12-02T14:52:44.143Z,-1.65
2023-12-02T14:55:14.883Z,-1.81
2023-12-02T14:57:41.295Z,-1.96
2023-12-02T15:00:10.445Z,-1.94
2023-12-02T15:02:46.580Z,-2.01
2023-12-02T15:05:15.220Z,-2.02
2023-12-02T15:07:58.100Z,-2.09
2023-12-02T15:10:33.656Z,-2.24
2023-12-02T15:13:06.830Z,-2.30
2023-12-02T15:15:45.176Z,-2.40
2023-12-02T15:18:19.071Z,-2.58
2023-12-02T15:21:09.461Z,-2.71
2023-12-02T15:23:37.549Z,-2.64
2023-12-02T15:26:04.741Z,-2.57
2023-12-02T15:28:30.993Z,-2.44
2023-12-02T15:31:24.711Z,-2.33
2023-12-02T15:33:54.842Z,-2.40
2023-12-02T15:36:23.341Z,-2.45
2023-12-02T15:38:54.256Z,-2.42
2023-12-02T15:41:23.754Z,-2.38
2023-12-02T15:43:54.719Z,-2.33
2023-12-02T15:46:22.292Z,-2.42
2023-12-02T15:48:49.974Z,-2.45
2023-12-02T15:51:19.035Z,-2.56
2023-12-02T15:53:47.264Z,-2.68
2023-12-02T15:56:15.686Z,-2.88
2023-12-02T15:58:42.128Z,-2.99
2023-12-02T16:01:13.013Z,-3.02
2023-12-02T16:03:41.266Z,-3.17
2023-12-02T16:06:09.131Z,-3.19
2023-12-02T16:08:37.983Z,-3.33
2023-12-02T16:11:06.055Z,-3.47
2023-12-02T16:13:38.961Z,-3.64
2023-12-02T16:16:12.915Z,-3.70
2023-12-02T16:18:44.336Z,-3.70
2023-12-02T16:21:19.985Z,-3.63
2023-12-02T16:23:48.323Z,-3.63
2023-12-02T16:26:16.618Z,-3.74
2023-12-02T16:28:45.012Z,-3.86
2023-12-02T16:31:11.777Z,-3.94
2023-12-02T16:33:39.560Z,-3.95
2023-12-02T16:36:06.742Z,-3.92
2023-12-02T16:38:34.607Z,-3.82
2023-12-02T16:41:00.951Z,-3.68
2023-12-02T16:43:27.284Z,-3.67
2023-12-02T16:45:57.257Z,-3.48
2023-12-02T16:48:24.461Z,-3.50
2023-12-02T16:50:52.372Z,-3.45
2023-12-02T16:53:24.611Z,-3.47
2023-12-02T16:55:56.278Z,-3.50
2023-12-02T16:58:26.506Z,-3.53
2023-12-02T17:00:55.105Z,-3.56
2023-12-02T17:03:37.754Z,-3.58
2023-12-02T17:06:23.190Z,-3.41
2023-12-02T17:08:52.584Z,-3.13
2023-12-02T17:11:21.890Z,-3.04
2023-12-02T17:13:55.676Z,-2.98
2023-12-02T17:16:32.364Z,-3.02
2023-12-02T17:19:02.609Z,-3.15
2023-12-02T17:21:32.170Z,-3.23
2023-12-02T17:23:59.356Z,-3.29
2023-12-02T17:26:30.494Z,-3.31
2023-12-02T17:28:57.237Z,-3.26
2023-12-02T17:31:23.957Z,-3.19
2023-12-02T17:33:50.486Z,-3.17
2023-12-02T17:36:17.333Z,-3.12
2023-12-02T17:38:43.998Z,-3.05
2023-12-02T17:41:10.435Z,-3.00
2023-12-02T17:43:36.872Z,-2.89
2023-12-02T17:46:03.660Z,-2.80
2023-12-02T17:48:30.253Z,-2.52
2023-12-02T17:50:56.715Z,-2.42
2023-12-02T17:53:23.762Z,-2.50
2023-12-02T17:55:50.247Z,-2.49
2023-12-02T17:58:16.612Z,-2.49
2023-12-02T18:00:44.755Z,-2.52
2023-12-02T18:03:11.538Z,-2.52
2023-12-02T18:05:38.016Z,-2.50
2023-12-02T18:08:06.057Z,-2.53
2023-12-02T18:10:32.474Z,-2.59
2023-12-02T18:12:58.886Z,-2.66
2023-12-02T18:15:25.301Z,-2.73
2023-12-02T18:17:52.517Z,-2.70
2023-12-02T18:20:19.985Z,-2.72
2023-12-02T18:22:46.662Z,-2.74
2023-12-02T18:25:13.057Z,-2.72
2023-12-02T18:27:39.505Z,-2.80
2023-12-02T18:30:07.316Z,-2.93
2023-12-02T18:32:33.698Z,-3.11
2023-12-02T18:35:00.349Z,-3.23
2023-12-02T18:37:26.748Z,-3.20
2023-12-02T18:39:53.102Z,-3.23
2023-12-02T18:42:19.504Z,-3.27
2023-12-02T18:44:45.893Z,-3.36
2023-12-02T18:47:12.226Z,-3.42
2023-12-02T18:49:38.647Z,-3.28
2023-12-02T18:52:05.022Z,-3.34
2023-12-02T18:54:31.444Z,-3.38
2023-12-02T18:56:57.853Z,-3.53
2023-12-02T18:59:24.202Z,-3.57
2023-12-02T19:01:50.611Z,-3.58
2023-12-02T19:04:17.099Z,-3.60
2023-12-02T19:06:43.746Z,-3.76
2023-12-02T19:09:11.618Z,-3.91
2023-12-02T19:11:38.631Z,-4.04
2023-12-02T19:14:05.056Z,-4.05
2023-12-02T19:16:31.519Z,-4.09
2023-12-02T19:18:58.985Z,-4.09
2023-12-02T19:21:25.557Z,-4.06
2023-12-02T19:23:54.396Z,-3.99
2023-12-02T19:26:20.734Z,-3.75
2023-12-02T19:28:47.283Z,-3.71
2023-12-02T19:31:13.675Z,-3.63
2023-12-02T19:33:40.143Z,-3.54
2023-12-02T19:36:07.127Z,-3.45
2023-12-02T19:38:33.545Z,-3.40
2023-12-02T19:40:59.926Z,-3.35
2023-12-02T19:43:26.343Z,-3.31
2023-12-02T19:45:52.881Z,-3.17
2023-12-02T19:48:19.221Z,-3.12
2023-12-02T19:50:45.622Z,-3.07
2023-12-02T19:53:12.077Z,-3.03
2023-12-02T19:55:38.477Z,-2.97
2023-12-02T19:58:05.136Z,-2.90
2023-12-02T20:00:31.652Z,-2.79
2023-12-02T20:02:58.118Z,-2.75
2023-12-02T20:05:25.752Z,-2.79
2023-12-02T20:07:54.027Z,-2.59
2023-12-02T20:10:20.432Z,-2.50
2023-12-02T20:12:49.927Z,-2.54
2023-12-02T20:15:16.625Z,-2.54
2023-12-02T20:17:43.017Z,-2.53
2023-12-02T20:20:10.083Z,-2.39
2023-12-02T20:22:36.487Z,-2.30
2023-12-02T20:25:02.920Z,-2.32
2023-12-02T20:27:29.385Z,-2.36
2023-12-02T20:29:55.798Z,-2.32
2023-12-02T20:32:22.213Z,-2.18
2023-12-02T20:34:48.692Z,-2.24
2023-12-02T20:37:15.063Z,-2.19
2023-12-02T20:39:41.466Z,-2.07
2023-12-02T20:42:07.978Z,-2.06
2023-12-02T20:44:34.398Z,-2.05
2023-12-02T20:47:01.433Z,-1.97
2023-12-02T20:49:27.957Z,-1.99
2023-12-02T20:51:55.936Z,-2.02
2023-12-02T20:54:22.312Z,-1.98
2023-12-02T20:56:48.683Z,-2.00
2023-12-02T20:59:15.279Z,-1.96
2023-12-02T21:01:41.720Z,-2.00
2023-12-02T21:04:08.143Z,-1.97
2023-12-02T21:06:34.541Z,-1.99
2023-12-02T21:09:00.886Z,-2.00
2023-12-02T21:11:27.232Z,-2.00
2023-12-02T21:13:53.579Z,-2.03
2023-12-02T21:16:19.955Z,-2.05
2023-12-02T21:18:46.441Z,-2.01
2023-12-02T21:21:13.453Z,-2.00
2023-12-02T21:23:40.034Z,-2.05
2023-12-02T21:26:06.664Z,-2.01
2023-12-02T21:28:33.381Z,-2.16
2023-12-02T21:31:00.245Z,-2.23
2023-12-02T21:33:36.331Z,-2.35
2023-12-02T21:36:03.358Z,-2.55
2023-12-02T21:38:46.865Z,-2.62
2023-12-02T21:41:17.339Z,-2.73
2023-12-02T21:43:45.600Z,-2.77
2023-12-02T21:46:30.779Z,-2.96
2023-12-02T21:49:15.955Z,-3.18
2023-12-02T21:51:47.557Z,-3.45
2023-12-02T21:54:19.001Z,-3.49
2023-12-02T21:56:48.065Z,-3.61
2023-12-02T21:59:15.876Z,-3.67
2023-12-02T22:01:43.574Z,-3.73
2023-12-02T22:04:11.363Z,-3.90
2023-12-02T22:07:11.332Z,-4.04
2023-12-02T22:09:39.976Z,-4.12
2023-12-02T22:12:13.504Z,-4.19
2023-12-02T22:14:39.900Z,-4.35
2023-12-02T22:17:07.449Z,-4.51
2023-12-02T22:19:35.131Z,-4.54
2023-12-02T22:22:01.785Z,-4.49
2023-12-02T22:24:28.202Z,-4.43
2023-12-02T22:26:54.666Z,-4.39
2023-12-02T22:29:31.590Z,-4.35
2023-12-02T22:31:59.189Z,-4.33
2023-12-02T22:34:25.779Z,-4.34
2023-12-02T22:36:52.676Z,-4.50
2023-12-02T22:39:27.598Z,-4.50
2023-12-02T22:41:56.864Z,-4.48
2023-12-02T22:44:24.553Z,-4.55
2023-12-02T22:46:52.727Z,-4.60
2023-12-02T22:49:23.010Z,-4.56
2023-12-02T22:51:50.199Z,-4.60
2023-12-02T22:54:34.107Z,-4.62
2023-12-02T22:57:01.024Z,-4.55
2023-12-02T22:59:29.414Z,-4.50
2023-12-02T23:01:56.546Z,-4.48
2023-12-02T23:04:43.262Z,-4.58
2023-12-02T23:07:15.904Z,-4.62
2023-12-02T23:09:46.291Z,-4.53
2023-12-02T23:12:34.999Z,-4.64
2023-12-02T23:15:07.763Z,-4.72
2023-12-02T23:17:36.376Z,-4.70
2023-12-02T23:20:10.082Z,-4.71
2023-12-02T23:22:37.592Z,-4.67
2023-12-02T23:25:10.742Z,-4.33
2023-12-02T23:27:45.336Z,-4.53
2023-12-02T23:30:17.811Z,-4.49
2023-12-02T23:32:44.660Z,-4.50
2023-12-02T23:35:19.463Z,-4.51
2023-12-02T23:37:48.838Z,-4.61
2023-12-02T23:40:26.745Z,-4.56
2023-12-02T23:42:54.569Z,-4.65
2023-12-02T23:45:21.151Z,-4.52
2023-12-02T23:47:48.971Z,-4.70
2023-12-02T23:50:15.392Z,-4.88
2023-12-02T23:52:41.820Z,-4.99
2023-12-02T23:55:09.430Z,-5.07
2023-12-02T23:57:37.239Z,-4.99
